Time;durP1;ratioP1;P1;durP2;ratioP2;P2;SDS_P1;SDS_P2;PMS_P1;PMS_P2;Temp;Humidity;BMP_temperature;BMP_pressure;BME280_temperature;BME280_humidity;BME280_pressure;Samples;Min_cycle;Max_cycle;Signal;HPM_P1;HPM_P2
2022/08/21 00:01:57;;;;;;;44.10;6.03;;;;;;;;;;1670558;86;21642;-83
2022/08/21 00:04:23;;;;;;;45.60;6.17;;;;;;;;;;1670871;86;21036;-82
2022/08/21 00:06:50;;;;;;;44.45;5.55;;;;;;;;;;1670525;86;20917;-84
2022/08/21 00:09:17;;;;;;;42.30;5.05;;;;;;;;;;1670963;86;21501;-83
2022/08/21 00:11:43;;;;;;;35.43;6.05;;;;;;;;;;1670716;85;21016;-82
2022/08/21 00:14:10;;;;;;;44.58;5.17;;;;;;;;;;1671065;86;21055;-81
2022/08/21 00:16:36;;;;;;;42.73;5.33;;;;;;;;;;1670806;86;20956;-84
2022/08/21 00:19:02;;;;;;;42.93;5.55;;;;;;;;;;1670736;85;20928;-84
2022/08/21 00:21:28;;;;;;;35.98;5.42;;;;;;;;;;1670555;86;20996;-83
2022/08/21 00:23:54;;;;;;;30.90;5.15;;;;;;;;;;1670736;85;20870;-83
2022/08/21 00:26:20;;;;;;;40.85;5.83;;;;;;;;;;1670704;86;20925;-81
2022/08/21 00:28:46;;;;;;;41.73;4.92;;;;;;;;;;1670926;86;20984;-82
2022/08/21 00:31:12;;;;;;;48.73;5.03;;;;;;;;;;1670769;85;20992;-83
2022/08/21 00:33:38;;;;;;;38.25;5.35;;;;;;;;;;1670693;85;20988;-83
2022/08/21 00:36:04;;;;;;;34.58;5.12;;;;;;;;;;1670895;85;21043;-83
2022/08/21 00:38:30;;;;;;;43.15;5.62;;;;;;;;;;1670811;86;20877;-83
2022/08/21 00:40:58;;;;;;;40.38;5.25;;;;;;;;;;1670862;86;20940;-82
2022/08/21 00:43:27;;;;;;;30.25;5.25;;;;;;;;;;1670742;86;20945;-83
2022/08/21 00:45:54;;;;;;;39.38;5.40;;;;;;;;;;1670746;85;20949;-83
2022/08/21 00:48:20;;;;;;;27.22;4.42;;;;;;;;;;1670591;86;21374;-87
2022/08/21 00:50:52;;;;;;;39.90;5.47;;;;;;;;;;1670986;85;20977;-82
2022/08/21 00:53:18;;;;;;;39.47;5.03;;;;;;;;;;1636577;87;21032;-81
2022/08/21 00:55:45;;;;;;;32.98;5.05;;;;;;;;;;1636324;87;21458;-83
2022/08/21 00:58:13;;;;;;;32.78;4.83;;;;;;;;;;1636275;87;21025;-81
2022/08/21 01:00:42;;;;;;;51.88;6.70;;;;;;;;;;1636106;87;21062;-84
2022/08/21 01:03:11;;;;;;;34.18;4.97;;;;;;;;;;1660681;86;20994;-82
2022/08/21 01:05:36;;;;;;;35.52;4.95;;;;;;;;;;1637075;87;21154;-83
2022/08/21 01:08:03;;;;;;;52.48;5.45;;;;;;;;;;1637322;87;21019;-80
2022/08/21 01:10:30;;;;;;;39.13;5.05;;;;;;;;;;1637531;86;21003;-86
2022/08/21 01:12:57;;;;;;;34.13;5.55;;;;;;;;;;1637594;87;22174;-83
2022/08/21 01:15:26;;;;;;;31.00;5.03;;;;;;;;;;1637260;87;21026;-83
2022/08/21 01:17:52;;;;;;;28.85;4.53;;;;;;;;;;1637153;86;21053;-83
2022/08/21 01:20:19;;;;;;;38.08;5.00;;;;;;;;;;1637053;86;20990;-83
2022/08/21 01:22:45;;;;;;;43.95;5.08;;;;;;;;;;1637254;87;20979;-82
2022/08/21 01:25:12;;;;;;;31.68;4.95;;;;;;;;;;1637443;87;20995;-83
2022/08/21 01:27:38;;;;;;;39.38;5.20;;;;;;;;;;1637319;87;20955;-82
2022/08/21 01:30:20;;;;;;;41.63;4.95;;;;;;;;;;1636459;87;20986;-88
2022/08/21 01:32:47;;;;;;;47.88;5.85;;;;;;;;;;1634191;87;20976;-82
2022/08/21 01:35:14;;;;;;;39.88;5.17;;;;;;;;;;1633987;87;21669;-83
2022/08/21 01:37:41;;;;;;;54.70;5.15;;;;;;;;;;1634404;87;21078;-86
2022/08/21 01:40:08;;;;;;;41.60;5.30;;;;;;;;;;1634175;87;20963;-83
2022/08/21 01:42:34;;;;;;;39.70;6.08;;;;;;;;;;1633833;87;21337;-82
2022/08/21 01:45:00;;;;;;;32.90;5.37;;;;;;;;;;1633957;87;21069;-84
2022/08/21 01:47:26;;;;;;;37.17;5.47;;;;;;;;;;1634322;87;20927;-82
2022/08/21 01:49:53;;;;;;;44.42;5.17;;;;;;;;;;1634280;87;21173;-84
2022/08/21 01:52:19;;;;;;;31.75;4.97;;;;;;;;;;1634239;87;21634;-82
2022/08/21 01:54:46;;;;;;;34.70;5.42;;;;;;;;;;1634209;87;20979;-83
2022/08/21 01:57:12;;;;;;;36.93;5.60;;;;;;;;;;1634074;87;21542;-81
2022/08/21 01:59:39;;;;;;;32.98;5.53;;;;;;;;;;1634420;87;21062;-82
2022/08/21 02:02:06;;;;;;;41.02;5.08;;;;;;;;;;1631179;86;21027;-87
2022/08/21 02:04:32;;;;;;;38.50;4.83;;;;;;;;;;1600868;88;20965;-83
2022/08/21 02:06:59;;;;;;;35.28;4.92;;;;;;;;;;1622355;88;21038;-82
2022/08/21 02:09:25;;;;;;;36.83;5.20;;;;;;;;;;1622153;88;20987;-83
2022/08/21 02:11:51;;;;;;;38.90;5.75;;;;;;;;;;1622100;88;20947;-83
2022/08/21 02:14:17;;;;;;;37.55;5.03;;;;;;;;;;1631360;87;21471;-82
2022/08/21 02:16:44;;;;;;;34.30;4.78;;;;;;;;;;1649443;87;21015;-83
2022/08/21 02:19:12;;;;;;;37.98;5.95;;;;;;;;;;1649409;87;20996;-83
2022/08/21 02:21:38;;;;;;;41.98;4.60;;;;;;;;;;1649346;87;20983;-83
2022/08/21 02:24:04;;;;;;;33.65;5.60;;;;;;;;;;1649495;86;20919;-82
2022/08/21 02:26:30;;;;;;;38.20;5.80;;;;;;;;;;1649442;86;20968;-84
2022/08/21 02:28:56;;;;;;;48.30;4.90;;;;;;;;;;1629359;87;20905;-82
2022/08/21 02:31:22;;;;;;;34.00;4.20;;;;;;;;;;1649340;86;20930;-82
2022/08/21 02:33:48;;;;;;;41.10;5.33;;;;;;;;;;1649576;87;20916;-83
2022/08/21 02:36:14;;;;;;;29.32;4.97;;;;;;;;;;1649301;86;20975;-83
2022/08/21 02:38:41;;;;;;;32.60;4.65;;;;;;;;;;1649298;87;21412;-86
2022/08/21 02:41:10;;;;;;;43.87;5.80;;;;;;;;;;1649417;86;20987;-83
2022/08/21 02:43:36;;;;;;;34.90;4.95;;;;;;;;;;1646334;87;20936;-84
2022/08/21 02:46:03;;;;;;;32.93;4.60;;;;;;;;;;1649478;86;21215;-82
2022/08/21 02:48:35;;;;;;;27.90;5.22;;;;;;;;;;1649329;86;21385;-83
2022/08/21 02:51:06;;;;;;;35.73;5.42;;;;;;;;;;1649616;86;21401;-82
2022/08/21 02:53:34;;;;;;;40.52;5.20;;;;;;;;;;1649278;87;21027;-84
2022/08/21 02:56:01;;;;;;;35.58;4.25;;;;;;;;;;1649300;86;20936;-84
2022/08/21 02:58:32;;;;;;;39.45;5.22;;;;;;;;;;1649566;87;21461;-84
2022/08/21 03:00:58;;;;;;;43.42;4.92;;;;;;;;;;1645770;86;21582;-83
2022/08/21 03:03:25;;;;;;;33.92;5.58;;;;;;;;;;1687105;83;21028;-83
2022/08/21 03:05:51;;;;;;;30.23;4.42;;;;;;;;;;1690071;83;20973;-81
2022/08/21 03:08:18;;;;;;;29.55;4.12;;;;;;;;;;1690484;83;21501;-83
2022/08/21 03:10:46;;;;;;;31.68;4.47;;;;;;;;;;1685649;83;20990;-83
2022/08/21 03:13:12;;;;;;;43.55;4.78;;;;;;;;;;1661499;85;21007;-84
2022/08/21 03:15:39;;;;;;;29.27;3.60;;;;;;;;;;1684373;83;20959;-85
2022/08/21 03:18:06;;;;;;;34.27;4.67;;;;;;;;;;1679797;85;21007;-83
2022/08/21 03:20:33;;;;;;;31.87;4.28;;;;;;;;;;1655508;85;21027;-88
2022/08/21 03:23:00;;;;;;;42.73;5.40;;;;;;;;;;1683408;83;21012;-86
2022/08/21 03:25:27;;;;;;;39.98;5.72;;;;;;;;;;1688476;83;21307;-85
2022/08/21 03:27:53;;;;;;;49.77;5.92;;;;;;;;;;1679019;83;20991;-83
2022/08/21 03:30:20;;;;;;;31.97;4.47;;;;;;;;;;1695562;83;20956;-84
2022/08/21 03:32:47;;;;;;;50.75;4.42;;;;;;;;;;1693058;83;21028;-82
2022/08/21 03:35:13;;;;;;;34.98;4.03;;;;;;;;;;1690917;83;21048;-83
2022/08/21 03:37:39;;;;;;;40.15;5.17;;;;;;;;;;1681914;83;20936;-84
2022/08/21 03:40:07;;;;;;;40.73;4.95;;;;;;;;;;1674797;85;20956;-83
2022/08/21 03:42:32;;;;;;;35.85;4.37;;;;;;;;;;1682137;83;20987;-84
2022/08/21 03:44:58;;;;;;;39.63;5.50;;;;;;;;;;1680558;83;20904;-85
2022/08/21 03:47:24;;;;;;;36.75;4.90;;;;;;;;;;1687803;83;20909;-84
2022/08/21 03:49:50;;;;;;;34.80;4.20;;;;;;;;;;1698224;83;21496;-86
2022/08/21 03:52:16;;;;;;;40.05;3.98;;;;;;;;;;1689134;83;20972;-85
2022/08/21 03:54:43;;;;;;;51.13;5.05;;;;;;;;;;1690845;83;20961;-83
2022/08/21 03:57:09;;;;;;;37.40;4.85;;;;;;;;;;1689967;83;21082;-86
2022/08/21 03:59:36;;;;;;;29.87;3.80;;;;;;;;;;1692831;83;20986;-85
2022/08/21 04:02:04;;;;;;;39.23;4.65;;;;;;;;;;1686853;83;21421;-82
2022/08/21 04:04:30;;;;;;;44.20;5.75;;;;;;;;;;1683145;84;21468;-83
2022/08/21 04:06:56;;;;;;;37.05;5.28;;;;;;;;;;1691888;84;20991;-85
2022/08/21 04:09:23;;;;;;;33.15;5.92;;;;;;;;;;1680965;84;21546;-86
2022/08/21 04:11:49;;;;;;;36.77;5.00;;;;;;;;;;1683107;84;21010;-86
2022/08/21 04:14:15;;;;;;;30.17;4.12;;;;;;;;;;1680234;85;21248;-86
2022/08/21 04:16:42;;;;;;;40.80;4.80;;;;;;;;;;1682259;84;21412;-86
2022/08/21 04:19:08;;;;;;;40.45;6.20;;;;;;;;;;1679952;85;20972;-88
2022/08/21 04:21:35;;;;;;;40.67;5.17;;;;;;;;;;1679624;85;20995;-84
2022/08/21 04:24:01;;;;;;;43.45;4.85;;;;;;;;;;1680233;85;21027;-87
2022/08/21 04:26:28;;;;;;;38.95;4.20;;;;;;;;;;1660318;85;21030;-87
2022/08/21 04:28:57;;;;;;;38.98;4.95;;;;;;;;;;1678903;85;21514;-86
2022/08/21 04:31:23;;;;;;;46.08;5.28;;;;;;;;;;1678641;85;21007;-87
2022/08/21 04:33:50;;;;;;;48.23;4.85;;;;;;;;;;1673510;83;21031;-86
2022/08/21 04:36:17;;;;;;;48.02;5.00;;;;;;;;;;1674853;85;20940;-85
2022/08/21 04:38:43;;;;;;;46.90;5.60;;;;;;;;;;1680911;85;21420;-86
2022/08/21 04:41:10;;;;;;;37.88;5.15;;;;;;;;;;1675868;85;22103;-86
2022/08/21 04:43:36;;;;;;;50.75;6.05;;;;;;;;;;1676449;85;21097;-87
2022/08/21 04:46:02;;;;;;;34.05;5.00;;;;;;;;;;1679325;83;21022;-87
2022/08/21 04:48:27;;;;;;;52.35;5.40;;;;;;;;;;1680913;85;20975;-87
2022/08/21 04:51:00;;;;;;;53.00;6.70;;;;;;;;;;1679441;85;20978;-86
2022/08/21 04:53:38;;;;;;;50.52;5.90;;;;;;;;;;1676191;85;21492;-85
2022/08/21 04:56:08;;;;;;;44.35;6.00;;;;;;;;;;1679346;85;20995;-85
2022/08/21 04:58:34;;;;;;;43.65;5.47;;;;;;;;;;1669627;85;20975;-82
2022/08/21 05:01:01;;;;;;;40.48;5.90;;;;;;;;;;1678339;85;20975;-87
2022/08/21 05:03:27;;;;;;;47.93;5.83;;;;;;;;;;1680388;85;20999;-85
2022/08/21 05:05:53;;;;;;;51.90;5.55;;;;;;;;;;1684913;85;21570;-86
2022/08/21 05:08:22;;;;;;;48.00;5.40;;;;;;;;;;1687547;83;22255;-85
2022/08/21 05:10:49;;;;;;;42.93;7.25;;;;;;;;;;1677275;85;20987;-84
2022/08/21 05:13:15;;;;;;;52.15;6.58;;;;;;;;;;1666646;84;20912;-87
2022/08/21 05:15:42;;;;;;;58.85;7.15;;;;;;;;;;1684066;83;20975;-85
2022/08/21 05:18:08;;;;;;;45.12;6.17;;;;;;;;;;1692023;84;20947;-82
2022/08/21 05:20:34;;;;;;;46.50;6.50;;;;;;;;;;1686298;84;20927;-85
2022/08/21 05:23:01;;;;;;;52.23;6.97;;;;;;;;;;1704856;84;20954;-84
2022/08/21 05:25:27;;;;;;;57.70;9.23;;;;;;;;;;1704831;84;21431;-84
2022/08/21 05:27:53;;;;;;;77.53;9.00;;;;;;;;;;1704724;84;20985;-84
2022/08/21 05:30:20;;;;;;;50.70;6.80;;;;;;;;;;1705473;82;21485;-83
2022/08/21 05:32:47;;;;;;;69.00;8.40;;;;;;;;;;1704814;84;21371;-83
2022/08/21 05:35:13;;;;;;;79.10;8.18;;;;;;;;;;1704761;84;21259;-85
2022/08/21 05:37:40;;;;;;;67.82;8.15;;;;;;;;;;1704557;84;31232;-85
2022/08/21 05:40:07;;;;;;;78.80;9.15;;;;;;;;;;1704809;84;20933;-84
2022/08/21 05:42:33;;;;;;;71.42;9.88;;;;;;;;;;1704583;84;22014;-83
2022/08/21 05:45:00;;;;;;;58.45;9.53;;;;;;;;;;1701545;84;21629;-87
2022/08/21 05:47:25;;;;;;;64.77;9.05;;;;;;;;;;1679462;85;20872;-84
2022/08/21 05:49:51;;;;;;;67.65;10.30;;;;;;;;;;1678712;85;21586;-82
2022/08/21 05:52:21;;;;;;;68.80;9.13;;;;;;;;;;1679777;85;20899;-85
2022/08/21 05:54:47;;;;;;;70.85;9.88;;;;;;;;;;1677769;85;20995;-84
2022/08/21 05:57:12;;;;;;;69.07;8.95;;;;;;;;;;1680230;85;20976;-85
2022/08/21 05:59:38;;;;;;;59.70;9.78;;;;;;;;;;1682126;85;20959;-87
2022/08/21 06:02:04;;;;;;;81.78;9.23;;;;;;;;;;1661442;85;20932;-86
2022/08/21 06:04:30;;;;;;;81.63;10.25;;;;;;;;;;1684123;85;20834;-81
2022/08/21 06:06:56;;;;;;;78.17;10.80;;;;;;;;;;1658192;85;20870;-85
2022/08/21 06:09:22;;;;;;;78.30;9.28;;;;;;;;;;1659029;85;20861;-86
2022/08/21 06:11:48;;;;;;;78.97;9.65;;;;;;;;;;1659852;85;20897;-85
2022/08/21 06:14:14;;;;;;;68.75;8.48;;;;;;;;;;1651717;85;20953;-86
2022/08/21 06:16:40;;;;;;;81.92;9.25;;;;;;;;;;1637799;85;21048;-84
2022/08/21 06:19:06;;;;;;;78.85;8.98;;;;;;;;;;1641406;86;20935;-85
2022/08/21 06:21:32;;;;;;;74.22;9.03;;;;;;;;;;1623197;87;21064;-85
2022/08/21 06:23:58;;;;;;;64.00;9.38;;;;;;;;;;1641390;87;20910;-82
2022/08/21 06:26:24;;;;;;;57.48;9.00;;;;;;;;;;1641339;87;20933;-87
2022/08/21 06:28:50;;;;;;;65.28;9.35;;;;;;;;;;1641412;87;20933;-89
2022/08/21 06:31:20;;;;;;;52.25;8.45;;;;;;;;;;1641370;87;20996;-83
2022/08/21 06:33:46;;;;;;;69.58;9.73;;;;;;;;;;1641477;86;21302;-84
2022/08/21 06:36:12;;;;;;;72.60;10.00;;;;;;;;;;1641357;87;21004;-84
2022/08/21 06:38:39;;;;;;;88.50;9.40;;;;;;;;;;1641145;87;20995;-84
2022/08/21 06:41:05;;;;;;;66.22;8.65;;;;;;;;;;1641355;87;21004;-88
2022/08/21 06:43:31;;;;;;;74.97;9.08;;;;;;;;;;1641321;87;21457;-84
2022/08/21 06:45:56;;;;;;;55.30;8.05;;;;;;;;;;1641365;87;21229;-84
2022/08/21 06:48:22;;;;;;;61.37;9.30;;;;;;;;;;1641407;87;21011;-87
2022/08/21 06:50:49;;;;;;;66.67;8.73;;;;;;;;;;1644110;86;21429;-85
2022/08/21 06:53:18;;;;;;;64.47;8.85;;;;;;;;;;1632446;86;20988;-85
2022/08/21 06:55:44;;;;;;;58.98;8.45;;;;;;;;;;1653199;86;20964;-83
2022/08/21 06:58:10;;;;;;;66.42;9.15;;;;;;;;;;1653293;86;21487;-85
2022/08/21 07:00:38;;;;;;;63.60;10.32;;;;;;;;;;1653190;86;20961;-83
2022/08/21 07:03:04;;;;;;;68.57;9.68;;;;;;;;;;1634743;85;20921;-84
2022/08/21 07:05:30;;;;;;;64.47;8.13;;;;;;;;;;1683883;85;20916;-84
2022/08/21 07:07:57;;;;;;;64.85;10.53;;;;;;;;;;1684166;85;20964;-84
2022/08/21 07:10:24;;;;;;;61.37;9.05;;;;;;;;;;1681874;85;20952;-84
2022/08/21 07:12:52;;;;;;;79.27;8.95;;;;;;;;;;1679632;85;21280;-83
2022/08/21 07:15:18;;;;;;;70.10;9.00;;;;;;;;;;1673494;85;20975;-85
2022/08/21 07:17:43;;;;;;;80.70;9.58;;;;;;;;;;1674456;85;20900;-82
2022/08/21 07:20:09;;;;;;;86.05;9.65;;;;;;;;;;1679074;85;22060;-85
2022/08/21 07:22:36;;;;;;;70.83;8.18;;;;;;;;;;1678060;85;21736;-81
2022/08/21 07:25:03;;;;;;;66.65;8.38;;;;;;;;;;1685656;84;21448;-84
2022/08/21 07:27:28;;;;;;;82.82;9.58;;;;;;;;;;1700151;84;20973;-84
2022/08/21 07:29:54;;;;;;;85.12;9.48;;;;;;;;;;1698015;84;21181;-82
2022/08/21 07:32:20;;;;;;;90.60;8.68;;;;;;;;;;1680853;85;20908;-79
2022/08/21 07:34:46;;;;;;;69.75;8.50;;;;;;;;;;1685289;85;21550;-82
2022/08/21 07:37:11;;;;;;;62.38;7.92;;;;;;;;;;1685287;85;20928;-82
2022/08/21 07:39:37;;;;;;;75.72;8.65;;;;;;;;;;1685566;85;20892;-85
2022/08/21 07:42:04;;;;;;;76.77;9.15;;;;;;;;;;1685389;85;20984;-82
2022/08/21 07:44:30;;;;;;;76.55;8.40;;;;;;;;;;1685497;85;20952;-81
2022/08/21 07:46:56;;;;;;;87.00;9.15;;;;;;;;;;1663724;85;20984;-82
2022/08/21 07:49:22;;;;;;;67.95;7.72;;;;;;;;;;1685440;85;20916;-81
2022/08/21 07:51:48;;;;;;;85.53;8.65;;;;;;;;;;1685522;85;20935;-80
2022/08/21 07:54:13;;;;;;;72.50;9.00;;;;;;;;;;1685909;85;21621;-81
2022/08/21 07:56:39;;;;;;;68.65;9.23;;;;;;;;;;1685554;85;20916;-81
2022/08/21 07:59:05;;;;;;;64.77;8.00;;;;;;;;;;1685748;85;21381;-82
2022/08/21 08:01:31;;;;;;;69.00;8.58;;;;;;;;;;1685534;85;20928;-85
2022/08/21 08:03:57;;;;;;;79.03;9.38;;;;;;;;;;1684999;85;20931;-82
2022/08/21 08:06:23;;;;;;;58.28;8.43;;;;;;;;;;1685030;85;21288;-83
2022/08/21 08:08:49;;;;;;;73.10;9.78;;;;;;;;;;1685059;85;21537;-83
2022/08/21 08:11:15;;;;;;;82.90;9.48;;;;;;;;;;1685422;85;20939;-82
2022/08/21 08:13:43;;;;;;;84.13;9.85;;;;;;;;;;1685074;85;21577;-80
2022/08/21 08:16:09;;;;;;;77.85;9.55;;;;;;;;;;1674545;85;21484;-82
2022/08/21 08:18:34;;;;;;;74.72;9.08;;;;;;;;;;1662652;86;20974;-81
2022/08/21 08:21:00;;;;;;;77.45;9.65;;;;;;;;;;1670857;85;20973;-83
2022/08/21 08:23:27;;;;;;;86.47;10.00;;;;;;;;;;1670475;86;21005;-82
2022/08/21 08:25:52;;;;;;;99.80;9.98;;;;;;;;;;1670482;86;21470;-82
2022/08/21 08:28:18;;;;;;;90.22;9.10;;;;;;;;;;1670713;85;21049;-83
2022/08/21 08:30:45;;;;;;;99.85;9.45;;;;;;;;;;1670947;86;20982;-83
2022/08/21 08:33:11;;;;;;;82.97;9.93;;;;;;;;;;1670780;85;20985;-82
2022/08/21 08:35:37;;;;;;;80.00;9.08;;;;;;;;;;1662800;86;20941;-83
2022/08/21 08:38:03;;;;;;;81.67;9.38;;;;;;;;;;1640716;85;20908;-82
2022/08/21 08:40:41;;;;;;;96.95;9.88;;;;;;;;;;1639372;86;20935;-87
2022/08/21 08:43:07;;;;;;;87.95;9.25;;;;;;;;;;1634633;86;20960;-84
2022/08/21 08:45:36;;;;;;;59.53;7.25;;;;;;;;;;1639263;86;20996;-84
2022/08/21 08:48:05;;;;;;;69.27;8.33;;;;;;;;;;1642698;86;20921;-84
2022/08/21 08:50:49;;;;;;;56.42;7.53;;;;;;;;;;1635915;86;21448;-81
2022/08/21 08:53:33;;;;;;;64.67;7.15;;;;;;;;;;1589798;89;22903;-84
2022/08/21 08:56:00;;;;;;;55.90;7.40;;;;;;;;;;1547333;90;21564;-83
2022/08/21 08:58:32;;;;;;;63.58;7.83;;;;;;;;;;1557054;90;21440;-82
2022/08/21 09:00:58;;;;;;;;;;;;;;;;;;1506271;94;21070;-85
2022/08/21 09:03:25;;;;;;;66.92;7.33;;;;;;;;;;1503730;93;20158;-86
2022/08/21 09:06:23;;;;;;;76.47;8.20;;;;;;;;;;1528837;92;21095;-86
2022/08/21 09:08:56;;;;;;;78.47;8.38;;;;;;;;;;1518262;92;21522;-86
2022/08/21 09:11:26;;;;;;;;;;;;;;;;;;1531290;92;21519;-85
2022/08/21 09:14:19;;;;;;;73.25;7.78;;;;;;;;;;1516027;92;20093;-86
2022/08/21 09:17:04;;;;;;;78.15;8.08;;;;;;;;;;1522046;92;21018;-85
2022/08/21 09:19:51;;;;;;;71.77;7.35;;;;;;;;;;1498623;94;22194;-85
2022/08/21 09:22:49;;;;;;;63.28;6.33;;;;;;;;;;1467203;96;21530;-90
2022/08/21 09:25:23;;;;;;;62.17;6.55;;;;;;;;;;1418680;99;21026;-85
2022/08/21 09:27:50;;;;;;;59.77;6.62;;;;;;;;;;1402891;101;20983;-84
2022/08/21 09:30:17;;;;;;;65.92;6.42;;;;;;;;;;1398639;101;21631;-84
2022/08/21 09:32:43;;;;;;;51.95;5.50;;;;;;;;;;1405070;101;21062;-84
2022/08/21 09:35:15;;;;;;;43.33;5.35;;;;;;;;;;1405578;101;21542;-86
2022/08/21 09:37:53;;;;;;;47.98;5.35;;;;;;;;;;1412644;99;21271;-84
2022/08/21 09:40:31;;;;;;;43.33;5.90;;;;;;;;;;1404294;101;21214;-84
2022/08/21 09:43:03;;;;;;;49.38;5.35;;;;;;;;;;1410394;101;21553;-83
2022/08/21 09:45:29;;;;;;;49.98;5.60;;;;;;;;;;1337631;107;21079;-86
2022/08/21 09:48:15;;;;;;;49.58;5.20;;;;;;;;;;1333231;105;21109;-85
2022/08/21 09:50:42;;;;;;;46.77;5.87;;;;;;;;;;1327566;108;21898;-87
2022/08/21 09:53:18;;;;;;;57.48;6.45;;;;;;;;;;1325636;106;21106;-84
2022/08/21 09:58:44;;;;;;;43.63;4.97;;;;;;;;;;1360328;101;21129;-85
2022/08/21 10:01:16;;;;;;;44.73;5.03;;;;;;;;;;1434692;98;21145;-84
2022/08/21 10:03:42;;;;;;;41.37;4.70;;;;;;;;;;1393484;101;21107;-87
2022/08/21 10:09:30;;;;;;;41.95;4.53;;;;;;;;;;1422935;99;21524;-86
2022/08/21 10:12:14;;;;;;;56.40;5.62;;;;;;;;;;1425490;100;21047;-86
2022/08/21 10:14:47;;;;;;;64.15;5.28;;;;;;;;;;1425947;100;21111;-88
2022/08/21 10:17:39;;;;;;;38.00;4.45;;;;;;;;;;1424661;100;21047;-80
2022/08/21 10:20:44;;;;;;;;;;;;;;;;;;;;;
2022/08/21 10:23:05;;;;;;;49.98;5.00;;;;;;;;;;1407744;100;21074;-83
2022/08/21 10:25:37;;;;;;;48.42;5.78;;;;;;;;;;1407323;100;21137;-83
2022/08/21 10:31:08;;;;;;;47.48;4.83;;;;;;;;;;1349955;104;21023;-85
2022/08/21 10:33:41;;;;;;;55.43;4.80;;;;;;;;;;1335710;107;21164;-84
2022/08/21 10:36:22;;;;;;;46.10;5.25;;;;;;;;;;1338308;107;21671;-86
2022/08/21 10:39:09;;;;;;;36.68;4.40;;;;;;;;;;1301605;109;21069;-82
2022/08/21 10:42:20;;;;;;;;;;;;;;;;;;;;;
2022/08/21 10:45:11;;;;;;;37.13;3.60;;;;;;;;;;1358024;104;21569;-86
2022/08/21 10:47:49;;;;;;;34.98;3.83;;;;;;;;;;1374522;104;21419;-85
2022/08/21 10:50:46;;;;;;;30.50;3.62;;;;;;;;;;1373921;101;21632;-85
2022/08/21 10:53:35;;;;;;;40.30;4.65;;;;;;;;;;1367127;104;21050;-85
2022/08/21 10:56:10;;;;;;;42.33;4.97;;;;;;;;;;1368371;104;21072;-81
2022/08/21 10:58:45;;;;;;;39.45;4.05;;;;;;;;;;1359252;104;21179;-85
2022/08/21 11:01:15;;;;;;;34.25;4.78;;;;;;;;;;1344197;105;21139;-88
2022/08/21 11:03:51;;;;;;;33.65;3.90;;;;;;;;;;1352354;105;21145;-81
2022/08/21 11:06:24;;;;;;;52.03;3.72;;;;;;;;;;1342331;104;21205;-84
2022/08/21 11:08:54;;;;;;;44.40;3.98;;;;;;;;;;1357893;103;21182;-82
2022/08/21 11:11:29;;;;;;;41.35;4.40;;;;;;;;;;1358965;104;21090;-83
2022/08/21 11:13:58;;;;;;;38.70;4.30;;;;;;;;;;1358472;105;21004;-81
2022/08/21 11:16:42;;;;;;;40.52;3.80;;;;;;;;;;1358026;105;21029;-85
2022/08/21 11:19:24;;;;;;;38.50;4.30;;;;;;;;;;1359864;104;21221;-80
2022/08/21 11:21:56;;;;;;;36.73;4.12;;;;;;;;;;1359639;104;22039;-83
2022/08/21 11:24:44;;;;;;;35.17;3.60;;;;;;;;;;1351733;105;21092;-82
2022/08/21 11:27:14;;;;;;;30.68;3.42;;;;;;;;;;1338028;106;21065;-84
2022/08/21 11:29:41;;;;;;;29.05;3.87;;;;;;;;;;1362285;104;21057;-83
2022/08/21 11:32:28;;;;;;;41.80;4.03;;;;;;;;;;1373918;104;21071;-79
2022/08/21 11:35:18;;;;;;;32.25;3.67;;;;;;;;;;1380595;100;21046;-84
2022/08/21 11:37:59;;;;;;;29.72;3.35;;;;;;;;;;1435812;99;21071;-82
2022/08/21 11:40:31;;;;;;;34.08;3.62;;;;;;;;;;1438506;99;21052;-86
2022/08/21 11:43:11;;;;;;;34.23;3.27;;;;;;;;;;1438457;99;21056;-84
2022/08/21 11:45:45;;;;;;;37.05;4.03;;;;;;;;;;1379486;102;21046;-84
2022/08/21 11:48:36;;;;;;;28.55;4.03;;;;;;;;;;1374266;103;21098;-82
2022/08/21 11:51:08;;;;;;;23.18;3.62;;;;;;;;;;1395637;101;21061;-85
2022/08/21 11:53:44;;;;;;;40.83;3.77;;;;;;;;;;1378338;101;21018;-87
2022/08/21 11:56:23;;;;;;;38.63;5.22;;;;;;;;;;1377756;102;21046;-84
2022/08/21 11:58:58;;;;;;;47.43;4.70;;;;;;;;;;1398344;101;21013;-83
2022/08/21 12:01:26;;;;;;;41.35;4.85;;;;;;;;;;1383572;103;21527;-84
2022/08/21 12:03:58;;;;;;;39.53;4.87;;;;;;;;;;1383998;102;21068;-84
2022/08/21 12:06:50;;;;;;;41.20;4.43;;;;;;;;;;1404220;100;21034;-86
2022/08/21 12:09:32;;;;;;;35.92;4.28;;;;;;;;;;1409807;100;20955;-88
2022/08/21 12:12:07;;;;;;;27.30;2.95;;;;;;;;;;1408446;100;21570;-84
2022/08/21 12:14:42;;;;;;;27.77;3.33;;;;;;;;;;1410794;100;21077;-85
2022/08/21 12:17:10;;;;;;;32.95;3.67;;;;;;;;;;1411548;100;21068;-85
2022/08/21 12:19:36;;;;;;;35.85;3.75;;;;;;;;;;1409766;100;21052;-84
2022/08/21 12:22:08;;;;;;;31.23;3.60;;;;;;;;;;1419711;97;21037;-84
2022/08/21 12:24:46;;;;;;;41.08;4.00;;;;;;;;;;1494398;95;21137;-86
2022/08/21 12:27:20;;;;;;;30.48;4.28;;;;;;;;;;1505301;92;21057;-83
2022/08/21 12:29:58;;;;;;;39.42;4.30;;;;;;;;;;1553895;92;21494;-84
2022/08/21 12:32:30;;;;;;;31.05;3.70;;;;;;;;;;1553650;92;21061;-84
2022/08/21 12:35:07;;;;;;;27.37;4.17;;;;;;;;;;1482822;96;21099;-81
2022/08/21 12:37:43;;;;;;;33.80;3.92;;;;;;;;;;1482094;96;21648;-82
2022/08/21 12:40:15;;;;;;;30.00;3.80;;;;;;;;;;1484601;96;21127;-82
2022/08/21 12:42:44;;;;;;;32.78;3.50;;;;;;;;;;1481828;96;21209;-85
2022/08/21 12:45:31;;;;;;;23.20;2.52;;;;;;;;;;1484408;96;21099;-82
2022/08/21 12:48:12;;;;;;;30.10;3.30;;;;;;;;;;1484232;96;21107;-86
2022/08/21 12:50:41;;;;;;;42.65;3.33;;;;;;;;;;1485054;96;21046;-83
2022/08/21 12:53:23;;;;;;;34.95;3.05;;;;;;;;;;1485470;96;21119;-83
2022/08/21 12:55:50;;;;;;;20.95;2.85;;;;;;;;;;1491780;96;21123;-87
2022/08/21 12:58:21;;;;;;;29.67;3.70;;;;;;;;;;1538528;90;20974;-82
2022/08/21 13:00:53;;;;;;;23.87;2.90;;;;;;;;;;1557961;90;21502;-85
2022/08/21 13:03:19;;;;;;;28.30;3.30;;;;;;;;;;1578547;90;21011;-83
2022/08/21 13:05:45;;;;;;;24.98;2.60;;;;;;;;;;1581425;87;21020;-82
2022/08/21 13:08:12;;;;;;;29.30;3.05;;;;;;;;;;1587415;90;20999;-86
2022/08/21 13:10:39;;;;;;;26.95;3.00;;;;;;;;;;1587591;90;21584;-84
2022/08/21 13:13:11;;;;;;;24.75;5.00;;;;;;;;;;1587619;90;21019;-84
2022/08/21 13:15:39;;;;;;;26.90;2.72;;;;;;;;;;1587671;90;21040;-83
2022/08/21 13:18:06;;;;;;;22.98;4.05;;;;;;;;;;1587248;90;21003;-83
2022/08/21 13:20:34;;;;;;;24.87;2.90;;;;;;;;;;1587625;90;21421;-84
2022/08/21 13:23:03;;;;;;;32.03;4.60;;;;;;;;;;1524728;92;21038;-83
2022/08/21 13:25:32;;;;;;;41.33;3.77;;;;;;;;;;1487952;96;20962;-83
2022/08/21 13:28:13;;;;;;;34.85;2.90;;;;;;;;;;1432744;99;21091;-83
2022/08/21 13:30:45;;;;;;;22.85;3.40;;;;;;;;;;1487642;96;21034;-83
2022/08/21 13:33:13;;;;;;;24.90;3.05;;;;;;;;;;1444938;99;21090;-84
2022/08/21 13:36:00;;;;;;;30.32;3.85;;;;;;;;;;1447733;99;21127;-83
2022/08/21 13:38:34;;;;;;;29.98;2.95;;;;;;;;;;1474667;96;21041;-84
2022/08/21 13:41:16;;;;;;;24.60;3.20;;;;;;;;;;1493784;96;21013;-83
2022/08/21 13:43:48;;;;;;;22.98;3.40;;;;;;;;;;1493603;96;21001;-81
2022/08/21 13:51:10;;;;;;;25.15;2.70;;;;;;;;;;1456081;97;21079;-84
2022/08/21 13:53:45;;;;;;;34.15;3.98;;;;;;;;;;1456290;98;20994;-84
2022/08/21 13:56:26;;;;;;;24.05;3.52;;;;;;;;;;1456226;98;21082;-83
2022/08/21 13:58:53;;;;;;;32.25;3.15;;;;;;;;;;1456539;98;20975;-86
2022/08/21 14:01:34;;;;;;;22.22;3.50;;;;;;;;;;1456433;98;21090;-83
2022/08/21 14:04:09;;;;;;;22.42;3.45;;;;;;;;;;1451574;99;21237;-84
2022/08/21 14:06:38;;;;;;;13.05;2.92;;;;;;;;;;1461957;96;21012;-82
2022/08/21 14:09:09;;;;;;;27.32;3.72;;;;;;;;;;1477683;96;21083;-83
2022/08/21 14:11:36;;;;;;;28.32;3.62;;;;;;;;;;1452395;98;21079;-83
2022/08/21 14:14:05;;;;;;;28.23;2.85;;;;;;;;;;1452382;98;21049;-88
2022/08/21 14:16:49;;;;;;;19.02;2.77;;;;;;;;;;1452540;98;21037;-83
2022/08/21 14:19:27;;;;;;;20.08;2.67;;;;;;;;;;1447583;98;21006;-85
2022/08/21 14:21:54;;;;;;;34.00;3.02;;;;;;;;;;1443227;99;21052;-81
2022/08/21 14:24:26;;;;;;;19.62;3.30;;;;;;;;;;1444462;98;21215;-84
2022/08/21 14:26:55;;;;;;;23.40;3.12;;;;;;;;;;1444825;98;21107;-84
2022/08/21 14:29:24;;;;;;;19.32;3.20;;;;;;;;;;1445298;99;22259;-83
2022/08/21 14:31:53;;;;;;;26.85;3.42;;;;;;;;;;1447483;98;21579;-83
2022/08/21 14:34:21;;;;;;;22.87;3.55;;;;;;;;;;1433203;98;21093;-83
2022/08/21 14:36:48;;;;;;;23.62;3.98;;;;;;;;;;1433231;98;21073;-84
2022/08/21 14:39:14;;;;;;;22.20;3.10;;;;;;;;;;1433465;100;21069;-81
2022/08/21 14:41:40;;;;;;;15.60;3.35;;;;;;;;;;1445401;97;21593;-82
2022/08/21 14:44:06;;;;;;;29.35;3.50;;;;;;;;;;1451726;97;20963;-87
2022/08/21 14:46:35;;;;;;;12.98;2.60;;;;;;;;;;1463217;96;21020;-83
2022/08/21 14:49:00;;;;;;;18.15;3.15;;;;;;;;;;1543644;88;21070;-84
2022/08/21 14:51:28;;;;;;;30.32;2.70;;;;;;;;;;1599194;88;21440;-83
2022/08/21 14:53:53;;;;;;;20.27;2.83;;;;;;;;;;1607414;88;20998;-83
2022/08/21 14:56:19;;;;;;;19.02;2.67;;;;;;;;;;1607379;88;22706;-82
2022/08/21 15:01:18;;;;;;;19.45;2.58;;;;;;;;;;1565429;89;22614;-83
2022/08/21 15:03:45;;;;;;;16.23;2.55;;;;;;;;;;1555652;90;20983;-82